sensor_id;sensor_type;location;lat;lon;timestamp;P1;durP1;ratioP1;P2;durP2;ratioP2
1378;SDS011;683;48.738;9.226;2023-07-24T00:01:03;10.57;;;8.60;;
1378;SDS011;683;48.738;9.226;2023-07-24T00:03:30;10.60;;;8.60;;
1378;SDS011;683;48.738;9.226;2023-07-24T00:05:59;9.50;;;7.23;;
1378;SDS011;683;48.738;9.226;2023-07-24T00:08:26;10.10;;;7.67;;
1378;SDS011;683;48.738;9.226;2023-07-24T00:10:53;8.70;;;7.43;;
1378;SDS011;683;48.738;9.226;2023-07-24T00:13:20;7.93;;;6.70;;
1378;SDS011;683;48.738;9.226;2023-07-24T00:15:47;7.60;;;6.83;;
1378;SDS011;683;48.738;9.226;2023-07-24T00:18:14;8.20;;;7.40;;
1378;SDS011;683;48.738;9.226;2023-07-24T00:20:41;9.20;;;7.70;;
1378;SDS011;683;48.738;9.226;2023-07-24T00:23:10;9.90;;;8.40;;
1378;SDS011;683;48.738;9.226;2023-07-24T00:25:37;9.17;;;7.40;;
1378;SDS011;683;48.738;9.226;2023-07-24T00:28:04;7.63;;;6.87;;
1378;SDS011;683;48.738;9.226;2023-07-24T00:30:31;8.53;;;7.63;;
1378;SDS011;683;48.738;9.226;2023-07-24T00:32:59;7.97;;;7.13;;
1378;SDS011;683;48.738;9.226;2023-07-24T00:35:26;11.27;;;8.53;;
1378;SDS011;683;48.738;9.226;2023-07-24T00:37:53;8.00;;;6.43;;
1378;SDS011;683;48.738;9.226;2023-07-24T00:40:21;10.10;;;7.70;;
1378;SDS011;683;48.738;9.226;2023-07-24T00:42:49;8.53;;;7.30;;
1378;SDS011;683;48.738;9.226;2023-07-24T00:45:16;7.97;;;6.87;;
1378;SDS011;683;48.738;9.226;2023-07-24T00:47:43;7.90;;;7.10;;
1378;SDS011;683;48.738;9.226;2023-07-24T00:50:10;8.10;;;6.83;;
1378;SDS011;683;48.738;9.226;2023-07-24T00:52:39;9.87;;;7.30;;
1378;SDS011;683;48.738;9.226;2023-07-24T00:55:07;9.50;;;6.67;;
1378;SDS011;683;48.738;9.226;2023-07-24T00:57:36;8.20;;;7.03;;
1378;SDS011;683;48.738;9.226;2023-07-24T01:00:04;8.73;;;6.43;;
1378;SDS011;683;48.738;9.226;2023-07-24T01:02:32;8.83;;;7.20;;
1378;SDS011;683;48.738;9.226;2023-07-24T01:05:00;9.60;;;7.20;;
1378;SDS011;683;48.738;9.226;2023-07-24T01:07:28;7.77;;;7.00;;
1378;SDS011;683;48.738;9.226;2023-07-24T01:09:56;10.00;;;7.90;;
1378;SDS011;683;48.738;9.226;2023-07-24T01:12:26;9.20;;;7.77;;
1378;SDS011;683;48.738;9.226;2023-07-24T01:15:01;11.13;;;7.00;;
1378;SDS011;683;48.738;9.226;2023-07-24T01:17:38;7.63;;;6.50;;
1378;SDS011;683;48.738;9.226;2023-07-24T01:20:11;8.83;;;7.93;;
1378;SDS011;683;48.738;9.226;2023-07-24T01:22:55;9.07;;;7.13;;
1378;SDS011;683;48.738;9.226;2023-07-24T01:25:32;8.70;;;6.63;;
1378;SDS011;683;48.738;9.226;2023-07-24T01:28:07;8.67;;;6.93;;
1378;SDS011;683;48.738;9.226;2023-07-24T01:30:35;9.40;;;7.17;;
1378;SDS011;683;48.738;9.226;2023-07-24T01:33:02;10.90;;;7.43;;
1378;SDS011;683;48.738;9.226;2023-07-24T01:35:29;9.23;;;8.30;;
1378;SDS011;683;48.738;9.226;2023-07-24T01:37:58;7.40;;;6.70;;
1378;SDS011;683;48.738;9.226;2023-07-24T01:40:26;10.53;;;7.93;;
1378;SDS011;683;48.738;9.226;2023-07-24T01:42:53;9.57;;;7.47;;
1378;SDS011;683;48.738;9.226;2023-07-24T01:45:22;8.10;;;6.97;;
1378;SDS011;683;48.738;9.226;2023-07-24T01:47:49;9.70;;;7.50;;
1378;SDS011;683;48.738;9.226;2023-07-24T01:50:16;8.80;;;7.53;;
1378;SDS011;683;48.738;9.226;2023-07-24T01:52:44;9.80;;;7.63;;
1378;SDS011;683;48.738;9.226;2023-07-24T01:55:11;8.57;;;6.90;;
1378;SDS011;683;48.738;9.226;2023-07-24T01:57:38;12.17;;;9.60;;
1378;SDS011;683;48.738;9.226;2023-07-24T02:00:06;8.40;;;7.40;;
1378;SDS011;683;48.738;9.226;2023-07-24T02:02:35;9.20;;;6.97;;
1378;SDS011;683;48.738;9.226;2023-07-24T02:05:03;7.50;;;6.80;;
1378;SDS011;683;48.738;9.226;2023-07-24T02:07:31;9.10;;;7.47;;
1378;SDS011;683;48.738;9.226;2023-07-24T02:09:58;8.70;;;7.33;;
1378;SDS011;683;48.738;9.226;2023-07-24T02:12:25;9.60;;;8.23;;
1378;SDS011;683;48.738;9.226;2023-07-24T02:14:53;9.33;;;7.47;;
1378;SDS011;683;48.738;9.226;2023-07-24T02:17:20;9.30;;;8.27;;
1378;SDS011;683;48.738;9.226;2023-07-24T02:19:50;8.93;;;6.83;;
1378;SDS011;683;48.738;9.226;2023-07-24T02:22:17;9.53;;;6.93;;
1378;SDS011;683;48.738;9.226;2023-07-24T02:24:44;8.33;;;7.10;;
1378;SDS011;683;48.738;9.226;2023-07-24T02:27:12;8.67;;;6.87;;
1378;SDS011;683;48.738;9.226;2023-07-24T02:29:39;10.43;;;8.13;;
1378;SDS011;683;48.738;9.226;2023-07-24T02:32:07;8.33;;;6.93;;
1378;SDS011;683;48.738;9.226;2023-07-24T02:34:34;8.97;;;8.03;;
1378;SDS011;683;48.738;9.226;2023-07-24T02:37:03;10.67;;;8.60;;
1378;SDS011;683;48.738;9.226;2023-07-24T02:39:30;9.27;;;7.53;;
1378;SDS011;683;48.738;9.226;2023-07-24T02:41:57;9.47;;;7.63;;
1378;SDS011;683;48.738;9.226;2023-07-24T02:44:24;8.70;;;7.47;;
1378;SDS011;683;48.738;9.226;2023-07-24T02:46:51;8.33;;;7.50;;
1378;SDS011;683;48.738;9.226;2023-07-24T02:49:18;9.50;;;7.70;;
1378;SDS011;683;48.738;9.226;2023-07-24T02:51:45;9.97;;;7.97;;
1378;SDS011;683;48.738;9.226;2023-07-24T02:54:14;8.97;;;7.70;;
1378;SDS011;683;48.738;9.226;2023-07-24T02:56:41;10.50;;;8.50;;
1378;SDS011;683;48.738;9.226;2023-07-24T02:59:08;11.73;;;7.73;;
1378;SDS011;683;48.738;9.226;2023-07-24T03:01:35;8.00;;;7.20;;
1378;SDS011;683;48.738;9.226;2023-07-24T03:04:03;10.57;;;8.00;;
1378;SDS011;683;48.738;9.226;2023-07-24T03:06:31;10.40;;;7.90;;
1378;SDS011;683;48.738;9.226;2023-07-24T03:08:58;9.37;;;8.10;;
1378;SDS011;683;48.738;9.226;2023-07-24T03:11:27;7.90;;;7.07;;
1378;SDS011;683;48.738;9.226;2023-07-24T03:13:55;8.60;;;7.70;;
1378;SDS011;683;48.738;9.226;2023-07-24T03:16:22;9.60;;;8.33;;
1378;SDS011;683;48.738;9.226;2023-07-24T03:18:49;11.30;;;7.90;;
1378;SDS011;683;48.738;9.226;2023-07-24T03:21:16;7.80;;;6.47;;
1378;SDS011;683;48.738;9.226;2023-07-24T03:23:45;9.80;;;8.20;;
1378;SDS011;683;48.738;9.226;2023-07-24T03:26:12;8.00;;;6.97;;
1378;SDS011;683;48.738;9.226;2023-07-24T03:28:41;12.03;;;7.50;;
1378;SDS011;683;48.738;9.226;2023-07-24T03:31:08;8.80;;;6.87;;
1378;SDS011;683;48.738;9.226;2023-07-24T03:33:35;8.20;;;7.23;;
1378;SDS011;683;48.738;9.226;2023-07-24T03:36:02;7.70;;;6.87;;
1378;SDS011;683;48.738;9.226;2023-07-24T03:38:30;8.57;;;7.67;;
1378;SDS011;683;48.738;9.226;2023-07-24T03:40:57;9.10;;;7.70;;
1378;SDS011;683;48.738;9.226;2023-07-24T03:43:24;10.33;;;8.30;;
1378;SDS011;683;48.738;9.226;2023-07-24T03:45:52;9.27;;;7.60;;
1378;SDS011;683;48.738;9.226;2023-07-24T03:48:19;8.50;;;7.00;;
1378;SDS011;683;48.738;9.226;2023-07-24T03:50:46;9.17;;;7.07;;
1378;SDS011;683;48.738;9.226;2023-07-24T03:53:15;6.53;;;5.70;;
1378;SDS011;683;48.738;9.226;2023-07-24T03:55:42;7.90;;;7.07;;
1378;SDS011;683;48.738;9.226;2023-07-24T03:58:09;9.57;;;7.97;;
1378;SDS011;683;48.738;9.226;2023-07-24T04:00:36;9.43;;;7.63;;
1378;SDS011;683;48.738;9.226;2023-07-24T04:03:05;8.93;;;6.97;;
1378;SDS011;683;48.738;9.226;2023-07-24T04:05:33;8.07;;;6.67;;
1378;SDS011;683;48.738;9.226;2023-07-24T04:08:00;9.67;;;7.67;;
1378;SDS011;683;48.738;9.226;2023-07-24T04:10:28;8.70;;;7.30;;
1378;SDS011;683;48.738;9.226;2023-07-24T04:12:56;8.13;;;7.20;;
1378;SDS011;683;48.738;9.226;2023-07-24T04:15:23;11.27;;;8.47;;
1378;SDS011;683;48.738;9.226;2023-07-24T04:17:50;10.60;;;8.20;;
1378;SDS011;683;48.738;9.226;2023-07-24T04:20:19;9.90;;;8.23;;
1378;SDS011;683;48.738;9.226;2023-07-24T04:22:46;8.57;;;7.30;;
1378;SDS011;683;48.738;9.226;2023-07-24T04:25:13;9.53;;;7.70;;
1378;SDS011;683;48.738;9.226;2023-07-24T04:27:41;10.27;;;7.53;;
1378;SDS011;683;48.738;9.226;2023-07-24T04:30:08;9.40;;;7.63;;
1378;SDS011;683;48.738;9.226;2023-07-24T04:32:35;8.70;;;7.03;;
1378;SDS011;683;48.738;9.226;2023-07-24T04:35:03;7.90;;;5.97;;
1378;SDS011;683;48.738;9.226;2023-07-24T04:37:32;7.50;;;6.63;;
1378;SDS011;683;48.738;9.226;2023-07-24T04:39:59;8.63;;;7.20;;
1378;SDS011;683;48.738;9.226;2023-07-24T04:42:26;8.87;;;7.20;;
1378;SDS011;683;48.738;9.226;2023-07-24T04:44:53;8.10;;;6.80;;
1378;SDS011;683;48.738;9.226;2023-07-24T04:47:20;6.57;;;5.90;;
1378;SDS011;683;48.738;9.226;2023-07-24T04:49:47;8.20;;;6.50;;
1378;SDS011;683;48.738;9.226;2023-07-24T04:52:14;7.97;;;6.63;;
1378;SDS011;683;48.738;9.226;2023-07-24T04:54:43;9.43;;;8.10;;
1378;SDS011;683;48.738;9.226;2023-07-24T04:57:10;9.60;;;7.20;;
1378;SDS011;683;48.738;9.226;2023-07-24T04:59:37;7.67;;;6.53;;
1378;SDS011;683;48.738;9.226;2023-07-24T05:02:04;8.03;;;6.93;;
1378;SDS011;683;48.738;9.226;2023-07-24T05:04:31;7.30;;;6.60;;
1378;SDS011;683;48.738;9.226;2023-07-24T05:06:58;10.00;;;8.27;;
1378;SDS011;683;48.738;9.226;2023-07-24T05:09:26;10.80;;;8.40;;
1378;SDS011;683;48.738;9.226;2023-07-24T05:11:54;8.70;;;7.00;;
1378;SDS011;683;48.738;9.226;2023-07-24T05:14:21;11.40;;;8.80;;
1378;SDS011;683;48.738;9.226;2023-07-24T05:16:48;8.93;;;7.93;;
1378;SDS011;683;48.738;9.226;2023-07-24T05:19:15;9.33;;;7.20;;
1378;SDS011;683;48.738;9.226;2023-07-24T05:21:43;8.77;;;6.73;;
1378;SDS011;683;48.738;9.226;2023-07-24T05:24:10;8.47;;;7.30;;
1378;SDS011;683;48.738;9.226;2023-07-24T05:26:37;9.30;;;7.40;;
1378;SDS011;683;48.738;9.226;2023-07-24T05:29:05;8.73;;;6.90;;
1378;SDS011;683;48.738;9.226;2023-07-24T05:31:33;8.90;;;7.63;;
1378;SDS011;683;48.738;9.226;2023-07-24T05:34:01;11.00;;;7.47;;
1378;SDS011;683;48.738;9.226;2023-07-24T05:36:28;9.30;;;7.17;;
1378;SDS011;683;48.738;9.226;2023-07-24T05:38:56;12.50;;;8.07;;
1378;SDS011;683;48.738;9.226;2023-07-24T05:41:23;8.20;;;7.40;;
1378;SDS011;683;48.738;9.226;2023-07-24T05:43:50;8.20;;;7.30;;
1378;SDS011;683;48.738;9.226;2023-07-24T05:46:19;10.67;;;8.40;;
1378;SDS011;683;48.738;9.226;2023-07-24T05:48:47;13.80;;;8.10;;
1378;SDS011;683;48.738;9.226;2023-07-24T05:51:15;10.20;;;7.57;;
1378;SDS011;683;48.738;9.226;2023-07-24T05:53:42;12.00;;;8.03;;
1378;SDS011;683;48.738;9.226;2023-07-24T05:56:09;11.07;;;9.90;;
1378;SDS011;683;48.738;9.226;2023-07-24T05:58:36;9.30;;;7.70;;
1378;SDS011;683;48.738;9.226;2023-07-24T06:01:03;9.20;;;8.23;;
1378;SDS011;683;48.738;9.226;2023-07-24T06:03:34;8.70;;;7.10;;
1378;SDS011;683;48.738;9.226;2023-07-24T06:06:02;9.30;;;7.53;;
1378;SDS011;683;48.738;9.226;2023-07-24T06:08:29;12.93;;;7.97;;
1378;SDS011;683;48.738;9.226;2023-07-24T06:10:56;10.23;;;7.00;;
1378;SDS011;683;48.738;9.226;2023-07-24T06:13:23;10.83;;;8.83;;
1378;SDS011;683;48.738;9.226;2023-07-24T06:15:51;11.10;;;8.30;;
1378;SDS011;683;48.738;9.226;2023-07-24T06:18:19;12.10;;;8.27;;
1378;SDS011;683;48.738;9.226;2023-07-24T06:20:48;10.77;;;8.23;;
1378;SDS011;683;48.738;9.226;2023-07-24T06:23:19;9.83;;;8.63;;
1378;SDS011;683;48.738;9.226;2023-07-24T06:25:49;10.20;;;8.47;;
1378;SDS011;683;48.738;9.226;2023-07-24T06:28:17;14.07;;;8.77;;
1378;SDS011;683;48.738;9.226;2023-07-24T06:30:44;10.90;;;8.50;;
1378;SDS011;683;48.738;9.226;2023-07-24T06:33:11;9.33;;;8.20;;
1378;SDS011;683;48.738;9.226;2023-07-24T06:35:38;9.77;;;8.57;;
1378;SDS011;683;48.738;9.226;2023-07-24T06:38:07;8.63;;;7.73;;
1378;SDS011;683;48.738;9.226;2023-07-24T06:40:34;9.33;;;8.30;;
1378;SDS011;683;48.738;9.226;2023-07-24T06:43:01;9.67;;;7.57;;
1378;SDS011;683;48.738;9.226;2023-07-24T06:45:29;13.73;;;9.47;;
1378;SDS011;683;48.738;9.226;2023-07-24T06:47:56;10.60;;;8.33;;
1378;SDS011;683;48.738;9.226;2023-07-24T06:50:23;12.20;;;9.10;;
1378;SDS011;683;48.738;9.226;2023-07-24T06:52:50;10.73;;;9.20;;
1378;SDS011;683;48.738;9.226;2023-07-24T06:55:20;9.50;;;8.20;;
1378;SDS011;683;48.738;9.226;2023-07-24T06:57:47;9.90;;;8.10;;
1378;SDS011;683;48.738;9.226;2023-07-24T07:00:14;9.73;;;7.50;;
1378;SDS011;683;48.738;9.226;2023-07-24T07:02:41;10.10;;;8.60;;
1378;SDS011;683;48.738;9.226;2023-07-24T07:05:08;9.30;;;8.40;;
1378;SDS011;683;48.738;9.226;2023-07-24T07:07:36;12.53;;;9.23;;
1378;SDS011;683;48.738;9.226;2023-07-24T07:10:04;9.23;;;8.13;;
1378;SDS011;683;48.738;9.226;2023-07-24T07:12:34;9.60;;;8.03;;
1378;SDS011;683;48.738;9.226;2023-07-24T07:15:01;9.03;;;8.10;;
1378;SDS011;683;48.738;9.226;2023-07-24T07:17:28;10.20;;;8.20;;
1378;SDS011;683;48.738;9.226;2023-07-24T07:19:55;9.00;;;8.10;;
1378;SDS011;683;48.738;9.226;2023-07-24T07:22:22;10.00;;;8.30;;
1378;SDS011;683;48.738;9.226;2023-07-24T07:24:49;11.77;;;8.53;;
1378;SDS011;683;48.738;9.226;2023-07-24T07:27:17;12.07;;;8.50;;
1378;SDS011;683;48.738;9.226;2023-07-24T07:29:45;9.20;;;7.97;;
1378;SDS011;683;48.738;9.226;2023-07-24T07:32:12;9.10;;;8.03;;
1378;SDS011;683;48.738;9.226;2023-07-24T07:34:39;8.90;;;8.00;;
1378;SDS011;683;48.738;9.226;2023-07-24T07:37:06;10.03;;;8.97;;
1378;SDS011;683;48.738;9.226;2023-07-24T07:39:34;10.47;;;9.37;;
1378;SDS011;683;48.738;9.226;2023-07-24T07:42:01;11.40;;;9.37;;
1378;SDS011;683;48.738;9.226;2023-07-24T07:44:28;10.20;;;9.13;;
1378;SDS011;683;48.738;9.226;2023-07-24T07:46:57;11.07;;;8.83;;
1378;SDS011;683;48.738;9.226;2023-07-24T07:49:24;9.27;;;8.13;;
1378;SDS011;683;48.738;9.226;2023-07-24T07:51:51;11.63;;;9.03;;
1378;SDS011;683;48.738;9.226;2023-07-24T07:54:18;9.20;;;8.00;;
1378;SDS011;683;48.738;9.226;2023-07-24T07:56:45;10.20;;;9.20;;
1378;SDS011;683;48.738;9.226;2023-07-24T07:59:12;9.57;;;8.67;;
1378;SDS011;683;48.738;9.226;2023-07-24T08:01:39;9.90;;;8.40;;
1378;SDS011;683;48.738;9.226;2023-07-24T08:04:08;10.90;;;9.83;;
1378;SDS011;683;48.738;9.226;2023-07-24T08:06:35;10.07;;;9.07;;
1378;SDS011;683;48.738;9.226;2023-07-24T08:09:02;11.03;;;8.73;;
1378;SDS011;683;48.738;9.226;2023-07-24T08:11:30;11.20;;;8.63;;
1378;SDS011;683;48.738;9.226;2023-07-24T08:13:57;11.93;;;8.87;;
1378;SDS011;683;48.738;9.226;2023-07-24T08:16:24;10.57;;;9.30;;
1378;SDS011;683;48.738;9.226;2023-07-24T08:18:51;8.40;;;7.60;;
1378;SDS011;683;48.738;9.226;2023-07-24T08:21:20;11.27;;;8.93;;
1378;SDS011;683;48.738;9.226;2023-07-24T08:23:47;9.60;;;8.63;;
1378;SDS011;683;48.738;9.226;2023-07-24T08:26:14;11.13;;;8.90;;
1378;SDS011;683;48.738;9.226;2023-07-24T08:28:41;12.43;;;9.63;;
1378;SDS011;683;48.738;9.226;2023-07-24T08:31:08;11.13;;;9.13;;
1378;SDS011;683;48.738;9.226;2023-07-24T08:33:35;10.60;;;9.60;;
1378;SDS011;683;48.738;9.226;2023-07-24T08:36:03;9.70;;;8.80;;
1378;SDS011;683;48.738;9.226;2023-07-24T08:38:33;14.37;;;10.10;;
1378;SDS011;683;48.738;9.226;2023-07-24T08:41:04;10.23;;;7.80;;
1378;SDS011;683;48.738;9.226;2023-07-24T08:43:35;9.70;;;8.20;;
1378;SDS011;683;48.738;9.226;2023-07-24T08:46:04;9.90;;;7.53;;
1378;SDS011;683;48.738;9.226;2023-07-24T08:48:32;8.67;;;7.77;;
1378;SDS011;683;48.738;9.226;2023-07-24T08:51:02;8.03;;;7.33;;
1378;SDS011;683;48.738;9.226;2023-07-24T08:53:29;9.27;;;8.37;;
1378;SDS011;683;48.738;9.226;2023-07-24T08:55:59;9.60;;;7.80;;
1378;SDS011;683;48.738;9.226;2023-07-24T08:58:27;8.43;;;7.13;;
1378;SDS011;683;48.738;9.226;2023-07-24T09:00:54;9.70;;;8.07;;
1378;SDS011;683;48.738;9.226;2023-07-24T09:03:22;10.90;;;8.43;;
1378;SDS011;683;48.738;9.226;2023-07-24T09:05:49;9.40;;;8.43;;
1378;SDS011;683;48.738;9.226;2023-07-24T09:08:16;10.63;;;9.07;;
1378;SDS011;683;48.738;9.226;2023-07-24T09:10:54;12.60;;;8.87;;
1378;SDS011;683;48.738;9.226;2023-07-24T09:13:22;9.10;;;7.50;;
1378;SDS011;683;48.738;9.226;2023-07-24T09:15:49;9.93;;;8.43;;
1378;SDS011;683;48.738;9.226;2023-07-24T09:18:17;8.47;;;7.67;;
1378;SDS011;683;48.738;9.226;2023-07-24T09:20:44;8.83;;;7.93;;
1378;SDS011;683;48.738;9.226;2023-07-24T09:23:12;8.93;;;7.33;;
1378;SDS011;683;48.738;9.226;2023-07-24T09:25:41;8.40;;;7.50;;
1378;SDS011;683;48.738;9.226;2023-07-24T09:28:10;7.10;;;6.37;;
1378;SDS011;683;48.738;9.226;2023-07-24T09:30:42;11.23;;;7.10;;
1378;SDS011;683;48.738;9.226;2023-07-24T09:33:17;7.20;;;6.50;;
1378;SDS011;683;48.738;9.226;2023-07-24T09:35:44;7.17;;;6.47;;
1378;SDS011;683;48.738;9.226;2023-07-24T09:38:22;8.13;;;6.00;;
1378;SDS011;683;48.738;9.226;2023-07-24T09:40:49;6.30;;;5.80;;
1378;SDS011;683;48.738;9.226;2023-07-24T09:43:21;6.87;;;6.27;;
1378;SDS011;683;48.738;9.226;2023-07-24T09:45:51;6.40;;;5.43;;
1378;SDS011;683;48.738;9.226;2023-07-24T09:48:19;6.23;;;5.63;;
1378;SDS011;683;48.738;9.226;2023-07-24T09:50:48;6.30;;;5.70;;
1378;SDS011;683;48.738;9.226;2023-07-24T09:53:17;5.70;;;5.07;;
1378;SDS011;683;48.738;9.226;2023-07-24T09:55:49;7.17;;;6.47;;
1378;SDS011;683;48.738;9.226;2023-07-24T09:58:22;8.30;;;5.80;;
1378;SDS011;683;48.738;9.226;2023-07-24T10:00:52;6.10;;;5.50;;
1378;SDS011;683;48.738;9.226;2023-07-24T10:03:20;7.23;;;6.07;;
1378;SDS011;683;48.738;9.226;2023-07-24T10:05:48;6.40;;;5.80;;
1378;SDS011;683;48.738;9.226;2023-07-24T10:08:17;7.43;;;6.60;;
1378;SDS011;683;48.738;9.226;2023-07-24T10:10:45;7.10;;;6.40;;
1378;SDS011;683;48.738;9.226;2023-07-24T10:13:16;7.00;;;6.40;;
1378;SDS011;683;48.738;9.226;2023-07-24T10:15:45;7.60;;;6.80;;
1378;SDS011;683;48.738;9.226;2023-07-24T10:18:16;6.57;;;5.50;;
1378;SDS011;683;48.738;9.226;2023-07-24T10:20:44;6.70;;;6.10;;
1378;SDS011;683;48.738;9.226;2023-07-24T10:23:16;7.20;;;6.23;;
1378;SDS011;683;48.738;9.226;2023-07-24T10:25:45;8.00;;;6.37;;
1378;SDS011;683;48.738;9.226;2023-07-24T10:28:12;8.03;;;7.13;;
1378;SDS011;683;48.738;9.226;2023-07-24T10:30:41;7.63;;;6.30;;
1378;SDS011;683;48.738;9.226;2023-07-24T10:33:09;6.87;;;6.07;;
1378;SDS011;683;48.738;9.226;2023-07-24T10:35:40;7.60;;;6.90;;
1378;SDS011;683;48.738;9.226;2023-07-24T10:38:09;8.67;;;7.77;;
1378;SDS011;683;48.738;9.226;2023-07-24T10:40:40;6.63;;;6.00;;
1378;SDS011;683;48.738;9.226;2023-07-24T10:43:08;10.93;;;7.50;;
1378;SDS011;683;48.738;9.226;2023-07-24T10:45:40;8.10;;;7.30;;
1378;SDS011;683;48.738;9.226;2023-07-24T10:48:08;8.33;;;7.53;;
1378;SDS011;683;48.738;9.226;2023-07-24T10:50:37;8.60;;;7.80;;
1378;SDS011;683;48.738;9.226;2023-07-24T10:53:07;9.60;;;7.83;;
1378;SDS011;683;48.738;9.226;2023-07-24T10:55:35;8.90;;;7.53;;
1378;SDS011;683;48.738;9.226;2023-07-24T10:58:02;9.57;;;7.90;;
1378;SDS011;683;48.738;9.226;2023-07-24T11:00:29;12.30;;;9.93;;
1378;SDS011;683;48.738;9.226;2023-07-24T11:02:56;9.90;;;8.93;;
1378;SDS011;683;48.738;9.226;2023-07-24T11:05:24;17.87;;;8.93;;
1378;SDS011;683;48.738;9.226;2023-07-24T11:07:51;10.73;;;8.60;;
1378;SDS011;683;48.738;9.226;2023-07-24T11:10:20;12.53;;;9.50;;
1378;SDS011;683;48.738;9.226;2023-07-24T11:12:48;11.47;;;9.30;;
1378;SDS011;683;48.738;9.226;2023-07-24T11:15:22;11.13;;;8.57;;
1378;SDS011;683;48.738;9.226;2023-07-24T11:17:52;13.43;;;9.10;;
1378;SDS011;683;48.738;9.226;2023-07-24T11:20:19;12.53;;;9.30;;
1378;SDS011;683;48.738;9.226;2023-07-24T11:22:46;10.70;;;9.60;;
1378;SDS011;683;48.738;9.226;2023-07-24T11:25:14;9.50;;;8.50;;
1378;SDS011;683;48.738;9.226;2023-07-24T11:27:43;8.63;;;7.83;;
1378;SDS011;683;48.738;9.226;2023-07-24T11:30:10;10.63;;;9.00;;
1378;SDS011;683;48.738;9.226;2023-07-24T11:32:38;10.33;;;9.30;;
1378;SDS011;683;48.738;9.226;2023-07-24T11:35:07;10.17;;;9.13;;
1378;SDS011;683;48.738;9.226;2023-07-24T11:37:35;12.17;;;9.73;;
1378;SDS011;683;48.738;9.226;2023-07-24T11:40:03;10.87;;;9.77;;
1378;SDS011;683;48.738;9.226;2023-07-24T11:42:38;12.47;;;10.20;;
1378;SDS011;683;48.738;9.226;2023-07-24T11:45:07;11.80;;;9.33;;
1378;SDS011;683;48.738;9.226;2023-07-24T11:47:43;10.60;;;9.60;;
1378;SDS011;683;48.738;9.226;2023-07-24T11:50:11;10.40;;;9.33;;
1378;SDS011;683;48.738;9.226;2023-07-24T11:52:39;9.03;;;8.10;;
1378;SDS011;683;48.738;9.226;2023-07-24T11:55:09;7.70;;;6.90;;
1378;SDS011;683;48.738;9.226;2023-07-24T11:57:36;8.47;;;7.60;;
1378;SDS011;683;48.738;9.226;2023-07-24T12:00:03;9.57;;;7.93;;
1378;SDS011;683;48.738;9.226;2023-07-24T12:02:34;9.80;;;7.50;;
1378;SDS011;683;48.738;9.226;2023-07-24T12:05:01;12.83;;;8.13;;
1378;SDS011;683;48.738;9.226;2023-07-24T12:07:32;9.33;;;7.77;;
1378;SDS011;683;48.738;9.226;2023-07-24T12:10:00;10.43;;;7.60;;
1378;SDS011;683;48.738;9.226;2023-07-24T12:12:38;9.90;;;8.13;;
1378;SDS011;683;48.738;9.226;2023-07-24T12:15:06;9.40;;;7.30;;
1378;SDS011;683;48.738;9.226;2023-07-24T12:17:35;8.07;;;7.37;;
1378;SDS011;683;48.738;9.226;2023-07-24T12:20:03;8.53;;;7.60;;
1378;SDS011;683;48.738;9.226;2023-07-24T12:22:33;7.87;;;7.07;;
1378;SDS011;683;48.738;9.226;2023-07-24T12:25:00;11.50;;;7.87;;
1378;SDS011;683;48.738;9.226;2023-07-24T12:27:29;9.00;;;8.10;;
1378;SDS011;683;48.738;9.226;2023-07-24T12:29:56;11.20;;;7.97;;
1378;SDS011;683;48.738;9.226;2023-07-24T12:32:24;7.70;;;6.47;;
1378;SDS011;683;48.738;9.226;2023-07-24T12:34:53;8.30;;;7.50;;
1378;SDS011;683;48.738;9.226;2023-07-24T12:37:20;7.30;;;6.70;;
1378;SDS011;683;48.738;9.226;2023-07-24T12:39:47;8.07;;;7.17;;
1378;SDS011;683;48.738;9.226;2023-07-24T12:42:15;7.93;;;6.13;;
1378;SDS011;683;48.738;9.226;2023-07-24T12:44:43;6.63;;;5.83;;
1378;SDS011;683;48.738;9.226;2023-07-24T12:47:10;8.40;;;7.50;;
1378;SDS011;683;48.738;9.226;2023-07-24T12:49:38;7.70;;;7.10;;
1378;SDS011;683;48.738;9.226;2023-07-24T12:52:07;8.40;;;7.00;;
1378;SDS011;683;48.738;9.226;2023-07-24T12:54:34;7.73;;;6.97;;
1378;SDS011;683;48.738;9.226;2023-07-24T12:57:01;6.30;;;5.80;;
1378;SDS011;683;48.738;9.226;2023-07-24T12:59:29;6.23;;;5.50;;
1378;SDS011;683;48.738;9.226;2023-07-24T13:01:56;6.67;;;5.57;;
1378;SDS011;683;48.738;9.226;2023-07-24T13:04:23;6.70;;;6.10;;
1378;SDS011;683;48.738;9.226;2023-07-24T13:06:50;7.33;;;6.63;;
1378;SDS011;683;48.738;9.226;2023-07-24T13:09:19;6.70;;;6.03;;
1378;SDS011;683;48.738;9.226;2023-07-24T13:11:47;7.03;;;6.13;;
1378;SDS011;683;48.738;9.226;2023-07-24T13:14:16;6.77;;;6.17;;
1378;SDS011;683;48.738;9.226;2023-07-24T13:16:43;6.97;;;6.27;;
1378;SDS011;683;48.738;9.226;2023-07-24T13:19:11;6.83;;;5.70;;
1378;SDS011;683;48.738;9.226;2023-07-24T13:21:38;6.50;;;5.90;;
1378;SDS011;683;48.738;9.226;2023-07-24T13:24:05;5.43;;;4.93;;
1378;SDS011;683;48.738;9.226;2023-07-24T13:26:34;5.90;;;5.40;;
1378;SDS011;683;48.738;9.226;2023-07-24T13:29:02;5.77;;;5.03;;
1378;SDS011;683;48.738;9.226;2023-07-24T13:31:30;7.30;;;5.33;;
1378;SDS011;683;48.738;9.226;2023-07-24T13:33:57;5.80;;;5.30;;
1378;SDS011;683;48.738;9.226;2023-07-24T13:36:25;5.87;;;5.27;;
1378;SDS011;683;48.738;9.226;2023-07-24T13:38:52;6.17;;;5.47;;
1378;SDS011;683;48.738;9.226;2023-07-24T13:41:19;6.53;;;5.93;;
1378;SDS011;683;48.738;9.226;2023-07-24T13:43:47;6.10;;;5.20;;
1378;SDS011;683;48.738;9.226;2023-07-24T13:46:14;5.63;;;5.23;;
1378;SDS011;683;48.738;9.226;2023-07-24T13:48:42;5.73;;;5.23;;
1378;SDS011;683;48.738;9.226;2023-07-24T13:51:09;6.43;;;5.67;;
1378;SDS011;683;48.738;9.226;2023-07-24T13:53:36;5.73;;;4.60;;
1378;SDS011;683;48.738;9.226;2023-07-24T13:56:03;5.37;;;4.77;;
1378;SDS011;683;48.738;9.226;2023-07-24T13:58:31;5.37;;;4.87;;
1378;SDS011;683;48.738;9.226;2023-07-24T14:01:03;5.83;;;5.33;;
1378;SDS011;683;48.738;9.226;2023-07-24T14:03:32;5.60;;;5.07;;
1378;SDS011;683;48.738;9.226;2023-07-24T14:05:59;5.73;;;5.13;;
1378;SDS011;683;48.738;9.226;2023-07-24T14:08:26;5.93;;;5.43;;
1378;SDS011;683;48.738;9.226;2023-07-24T14:10:54;5.10;;;4.70;;
1378;SDS011;683;48.738;9.226;2023-07-24T14:13:21;5.57;;;5.03;;
1378;SDS011;683;48.738;9.226;2023-07-24T14:15:48;7.13;;;5.00;;
1378;SDS011;683;48.738;9.226;2023-07-24T14:18:16;5.03;;;4.20;;
1378;SDS011;683;48.738;9.226;2023-07-24T14:20:43;5.70;;;5.20;;
1378;SDS011;683;48.738;9.226;2023-07-24T14:23:12;5.60;;;5.13;;
1378;SDS011;683;48.738;9.226;2023-07-24T14:25:41;5.37;;;4.90;;
1378;SDS011;683;48.738;9.226;2023-07-24T14:28:08;5.33;;;4.83;;
1378;SDS011;683;48.738;9.226;2023-07-24T14:30:35;6.10;;;4.60;;
1378;SDS011;683;48.738;9.226;2023-07-24T14:33:02;5.30;;;4.90;;
1378;SDS011;683;48.738;9.226;2023-07-24T14:35:31;5.30;;;4.80;;
1378;SDS011;683;48.738;9.226;2023-07-24T14:37:58;5.40;;;4.90;;
1378;SDS011;683;48.738;9.226;2023-07-24T14:40:25;4.50;;;4.17;;
1378;SDS011;683;48.738;9.226;2023-07-24T14:42:52;4.93;;;4.50;;
1378;SDS011;683;48.738;9.226;2023-07-24T14:45:19;4.63;;;4.23;;
1378;SDS011;683;48.738;9.226;2023-07-24T14:47:50;5.00;;;3.90;;
1378;SDS011;683;48.738;9.226;2023-07-24T14:50:17;5.27;;;4.83;;
1378;SDS011;683;48.738;9.226;2023-07-24T14:52:45;4.90;;;4.20;;
1378;SDS011;683;48.738;9.226;2023-07-24T14:55:13;6.10;;;5.10;;
1378;SDS011;683;48.738;9.226;2023-07-24T14:57:41;4.03;;;3.73;;
1378;SDS011;683;48.738;9.226;2023-07-24T15:00:08;3.73;;;3.43;;
1378;SDS011;683;48.738;9.226;2023-07-24T15:02:36;4.90;;;4.47;;
1378;SDS011;683;48.738;9.226;2023-07-24T15:05:03;4.63;;;4.23;;
1378;SDS011;683;48.738;9.226;2023-07-24T15:07:31;6.80;;;4.10;;
1378;SDS011;683;48.738;9.226;2023-07-24T15:09:59;4.23;;;3.83;;
1378;SDS011;683;48.738;9.226;2023-07-24T15:12:26;4.20;;;3.80;;
1378;SDS011;683;48.738;9.226;2023-07-24T15:14:53;4.30;;;3.90;;
1378;SDS011;683;48.738;9.226;2023-07-24T15:17:20;3.77;;;3.47;;
1378;SDS011;683;48.738;9.226;2023-07-24T15:19:48;4.93;;;4.43;;
1378;SDS011;683;48.738;9.226;2023-07-24T15:22:15;4.90;;;4.40;;
1378;SDS011;683;48.738;9.226;2023-07-24T15:24:42;5.03;;;4.50;;
1378;SDS011;683;48.738;9.226;2023-07-24T15:27:10;5.50;;;4.30;;
1378;SDS011;683;48.738;9.226;2023-07-24T15:29:37;5.40;;;4.60;;
1378;SDS011;683;48.738;9.226;2023-07-24T15:32:05;4.30;;;3.90;;